<?xml version="1.0" encoding="UTF-8"?>
<gpx xmlns="http://www.topografix.com/GPX/1/1" xmlns:ns2="http://www.garmin.com/xmlschemas/GpxExtensions/v3" xmlns:ns3="http://www.garmin.com/xmlschemas/TrackPointExtension/v1" xmlns:xsi="http://www.w3.org/2001/XMLSchema-instance" xsi:schemaLocation="http://www.topografix.com/GPX/1/1 http://www.topografix.com/GPX/11.xsd" version="1.1" creator="Garmin Connect">
  <metadata>
    <name>VR - Climb Tavernole / Passo del Termine</name>
    <link href="connect.garmin.com">
      <text>Garmin Connect</text>
    </link>
    <time>2018-02-26T14:33:29Z</time>
  </metadata>
  <trk>
    <trkseg>
      <trkpt lat="45.74801445007324" lon="10.241467952728271">
        <ele>473.0</ele>
        <time>2018-02-26T14:33:29Z</time>
      </trkpt>
      <trkpt lat="45.74758529663086" lon="10.241382122039795">
        <ele>477.19553405904776</ele>
        <time>2018-02-26T14:33:29.695000Z</time>
      </trkpt>
      <trkpt lat="45.747199058532715" lon="10.241403579711914">
        <ele>480.93807810004245</ele>
        <time>2018-02-26T14:33:30.315000Z</time>
      </trkpt>
      <trkpt lat="45.74659824371338" lon="10.241832733154297">
        <ele>489.4380662095178</ele>
        <time>2018-02-26T14:33:31.391000Z</time>
      </trkpt>
      <trkpt lat="45.74659824371338" lon="10.241940021514893">
        <ele>491.25086694910146</ele>
        <time>2018-02-26T14:33:31.511000Z</time>
      </trkpt>
      <trkpt lat="45.74679136276245" lon="10.242412090301514">
        <ele>506.49672677014496</ele>
        <time>2018-02-26T14:33:32.123000Z</time>
      </trkpt>
      <trkpt lat="45.746963024139404" lon="10.243721008300781">
        <ele>545.0</ele>
        <time>2018-02-26T14:33:33.613000Z</time>
      </trkpt>
      <trkpt lat="45.746941566467285" lon="10.244042873382568">
        <ele>545.5508074770681</ele>
        <time>2018-02-26T14:33:33.975000Z</time>
      </trkpt>
      <trkpt lat="45.746812988072634" lon="10.244416957721114">
        <ele>547.5945194974591</ele>
        <time>2018-02-26T14:33:34.442000Z</time>
      </trkpt>
      <trkpt lat="45.746813071891665" lon="10.244416706264019">
        <ele>547.5949942279852</ele>
        <time>2018-02-26T14:33:34.442000Z</time>
      </trkpt>
      <trkpt lat="45.746705532073975" lon="10.24472951889038">
        <ele>548.1890431941741</ele>
        <time>2018-02-26T14:33:34.832000Z</time>
      </trkpt>
      <trkpt lat="45.746684074401855" lon="10.245115756988525">
        <ele>550.5157676223681</ele>
        <time>2018-02-26T14:33:35.265000Z</time>
      </trkpt>
      <trkpt lat="45.746726989746094" lon="10.245351791381836">
        <ele>551.8589551155492</ele>
        <time>2018-02-26T14:33:35.538000Z</time>
      </trkpt>
      <trkpt lat="45.747435092926025" lon="10.246210098266602">
        <ele>555.1776668093455</ele>
        <time>2018-02-26T14:33:37.025000Z</time>
      </trkpt>
      <trkpt lat="45.74758529663086" lon="10.2467679977417">
        <ele>577.6470946500366</ele>
        <time>2018-02-26T14:33:37.694000Z</time>
      </trkpt>
      <trkpt lat="45.74756383895874" lon="10.247089862823486">
        <ele>577.5911748232332</ele>
        <time>2018-02-26T14:33:38.056000Z</time>
      </trkpt>
      <trkpt lat="45.747413635253906" lon="10.247647762298584">
        <ele>556.1544205493022</ele>
        <time>2018-02-26T14:33:38.725000Z</time>
      </trkpt>
      <trkpt lat="45.74758529663086" lon="10.24850606918335">
        <ele>570.0</ele>
        <time>2018-02-26T14:33:39.724000Z</time>
      </trkpt>
      <trkpt lat="45.74790716171265" lon="10.249106884002686">
        <ele>573.6329529236298</ele>
        <time>2018-02-26T14:33:40.571000Z</time>
      </trkpt>
      <trkpt lat="45.748164653778076" lon="10.249407291412354">
        <ele>570.9151224376527</ele>
        <time>2018-02-26T14:33:41.103000Z</time>
      </trkpt>
      <trkpt lat="45.748465061187744" lon="10.249621868133545">
        <ele>584.8888581194425</ele>
        <time>2018-02-26T14:33:41.641000Z</time>
      </trkpt>
      <trkpt lat="45.748701095581055" lon="10.24998664855957">
        <ele>582.6424096597722</ele>
        <time>2018-02-26T14:33:42.198000Z</time>
      </trkpt>
      <trkpt lat="45.74885129928589" lon="10.250329971313477">
        <ele>576.8125503569428</ele>
        <time>2018-02-26T14:33:42.651000Z</time>
      </trkpt>
      <trkpt lat="45.74885129928589" lon="10.250651836395264">
        <ele>575.3591009297819</ele>
        <time>2018-02-26T14:33:43.011000Z</time>
      </trkpt>
      <trkpt lat="45.748958587646484" lon="10.251123905181885">
        <ele>569.8072480921688</ele>
        <time>2018-02-26T14:33:43.566000Z</time>
      </trkpt>
      <trkpt lat="45.7489800453186" lon="10.251381397247314">
        <ele>573.8288604493738</ele>
        <time>2018-02-26T14:33:43.856000Z</time>
      </trkpt>
      <trkpt lat="45.748722553253174" lon="10.251703262329102">
        <ele>580.7558589940459</ele>
        <time>2018-02-26T14:33:44.404000Z</time>
      </trkpt>
      <trkpt lat="45.74876546859741" lon="10.251896381378174">
        <ele>583.8989993848883</ele>
        <time>2018-02-26T14:33:44.631000Z</time>
      </trkpt>
      <trkpt lat="45.74885129928589" lon="10.251896381378174">
        <ele>585.8065276121356</ele>
        <time>2018-02-26T14:33:44.769000Z</time>
      </trkpt>
      <trkpt lat="45.748937129974365" lon="10.251874923706055">
        <ele>587.7428643256576</ele>
        <time>2018-02-26T14:33:44.909000Z</time>
      </trkpt>
      <trkpt lat="45.749216079711914" lon="10.251338481903076">
        <ele>618.4513179987285</ele>
        <time>2018-02-26T14:33:45.657000Z</time>
      </trkpt>
      <trkpt lat="45.749216079711914" lon="10.251102447509766">
        <ele>621.1921368345367</ele>
        <time>2018-02-26T14:33:45.921000Z</time>
      </trkpt>
      <trkpt lat="45.74913024902344" lon="10.250930786132812">
        <ele>603.9776857695157</ele>
        <time>2018-02-26T14:33:46.157000Z</time>
      </trkpt>
      <trkpt lat="45.74913024902344" lon="10.25075912475586">
        <ele>611.3043449577111</ele>
        <time>2018-02-26T14:33:46.349000Z</time>
      </trkpt>
      <trkpt lat="45.74930191040039" lon="10.250329971313477">
        <ele>634.3816656818337</ele>
        <time>2018-02-26T14:33:46.902000Z</time>
      </trkpt>
      <trkpt lat="45.74928045272827" lon="10.24998664855957">
        <ele>644.1368843155391</ele>
        <time>2018-02-26T14:33:47.288000Z</time>
      </trkpt>
      <trkpt lat="45.748958587646484" lon="10.249450206756592">
        <ele>625.7861531294591</ele>
        <time>2018-02-26T14:33:48.079000Z</time>
      </trkpt>
      <trkpt lat="45.748915672302246" lon="10.249085426330566">
        <ele>636.6485285780068</ele>
        <time>2018-02-26T14:33:48.493000Z</time>
      </trkpt>
      <trkpt lat="45.748958587646484" lon="10.249021053314209">
        <ele>636.8560730165872</ele>
        <time>2018-02-26T14:33:48.593000Z</time>
      </trkpt>
      <trkpt lat="45.74906587600708" lon="10.24897813796997">
        <ele>637.2281978908272</ele>
        <time>2018-02-26T14:33:48.772000Z</time>
      </trkpt>
      <trkpt lat="45.74913024902344" lon="10.249021053314209">
        <ele>639.5049840020243</ele>
        <time>2018-02-26T14:33:48.886000Z</time>
      </trkpt>
      <trkpt lat="45.749194622039795" lon="10.249407291412354">
        <ele>648.3911021627571</ele>
        <time>2018-02-26T14:33:49.330000Z</time>
      </trkpt>
      <trkpt lat="45.74955940246582" lon="10.249857902526855">
        <ele>647.0526212428917</ele>
        <time>2018-02-26T14:33:50.102000Z</time>
      </trkpt>
      <trkpt lat="45.74958086013794" lon="10.250608921051025">
        <ele>634.0265181990798</ele>
        <time>2018-02-26T14:33:50.943000Z</time>
      </trkpt>
      <trkpt lat="45.7496452331543" lon="10.250887870788574">
        <ele>628.5407078241911</ele>
        <time>2018-02-26T14:33:51.272000Z</time>
      </trkpt>
      <trkpt lat="45.74985980987549" lon="10.251317024230957">
        <ele>624.0738976584706</ele>
        <time>2018-02-26T14:33:51.863000Z</time>
      </trkpt>
      <trkpt lat="45.74990272521973" lon="10.25151014328003">
        <ele>622.97472612816</ele>
        <time>2018-02-26T14:33:52.090000Z</time>
      </trkpt>
      <trkpt lat="45.74990272521973" lon="10.25200366973877">
        <ele>615.6315158267015</ele>
        <time>2018-02-26T14:33:52.642000Z</time>
      </trkpt>
      <trkpt lat="45.74983835220337" lon="10.252411365509033">
        <ele>613.3645572682553</ele>
        <time>2018-02-26T14:33:53.110000Z</time>
      </trkpt>
      <trkpt lat="45.74977397918701" lon="10.252561569213867">
        <ele>614.7419153280925</ele>
        <time>2018-02-26T14:33:53.307000Z</time>
      </trkpt>
      <trkpt lat="45.749452114105225" lon="10.252947807312012">
        <ele>618.294883692779</ele>
        <time>2018-02-26T14:33:53.980000Z</time>
      </trkpt>
      <trkpt lat="45.749452114105225" lon="10.253055095672607">
        <ele>620.376878558155</ele>
        <time>2018-02-26T14:33:54.100000Z</time>
      </trkpt>
      <trkpt lat="45.74955940246582" lon="10.253205299377441">
        <ele>624.547999961117</ele>
        <time>2018-02-26T14:33:54.340000Z</time>
      </trkpt>
      <trkpt lat="45.74962377548218" lon="10.253183841705322">
        <ele>628.3490730604589</ele>
        <time>2018-02-26T14:33:54.446000Z</time>
      </trkpt>
      <trkpt lat="45.75001001358032" lon="10.252690315246582">
        <ele>658.1100792950996</ele>
        <time>2018-02-26T14:33:55.276000Z</time>
      </trkpt>
      <trkpt lat="45.75011730194092" lon="10.252454280853271">
        <ele>663.9098356719455</ele>
        <time>2018-02-26T14:33:55.591000Z</time>
      </trkpt>
      <trkpt lat="45.750181674957275" lon="10.251810550689697">
        <ele>670.7202990214696</ele>
        <time>2018-02-26T14:33:56.318000Z</time>
      </trkpt>
      <trkpt lat="45.750160217285156" lon="10.251188278198242">
        <ele>683.2451194061027</ele>
        <time>2018-02-26T14:33:57.015000Z</time>
      </trkpt>
      <trkpt lat="45.750181674957275" lon="10.251038074493408">
        <ele>683.4615130053999</ele>
        <time>2018-02-26T14:33:57.187000Z</time>
      </trkpt>
      <trkpt lat="45.75028896331787" lon="10.25099515914917">
        <ele>683.686816082744</ele>
        <time>2018-02-26T14:33:57.366000Z</time>
      </trkpt>
      <trkpt lat="45.750417709350586" lon="10.251102447509766">
        <ele>683.181158275389</ele>
        <time>2018-02-26T14:33:57.605000Z</time>
      </trkpt>
      <trkpt lat="45.75039625167847" lon="10.25247573852539">
        <ele>671.1399742239544</ele>
        <time>2018-02-26T14:33:59.142000Z</time>
      </trkpt>
      <trkpt lat="45.750181674957275" lon="10.253098011016846">
        <ele>667.3462518820787</ele>
        <time>2018-02-26T14:33:59.918000Z</time>
      </trkpt>
      <trkpt lat="45.75031042098999" lon="10.253591537475586">
        <ele>663.1625541704344</ele>
        <time>2018-02-26T14:34:00.507000Z</time>
      </trkpt>
      <trkpt lat="45.75028896331787" lon="10.253827571868896">
        <ele>661.7437716721943</ele>
        <time>2018-02-26T14:34:00.773000Z</time>
      </trkpt>
      <trkpt lat="45.750203132629395" lon="10.254149436950684">
        <ele>659.6899565465255</ele>
        <time>2018-02-26T14:34:01.158000Z</time>
      </trkpt>
      <trkpt lat="45.74999735690653" lon="10.254546236246824">
        <ele>645.743165298688</ele>
        <time>2018-02-26T14:34:01.711000Z</time>
      </trkpt>
      <trkpt lat="45.749997440725565" lon="10.25454606860876">
        <ele>645.7443187327796</ele>
        <time>2018-02-26T14:34:01.713000Z</time>
      </trkpt>
      <trkpt lat="45.74990272521973" lon="10.2547287940979">
        <ele>647.0174029750615</ele>
        <time>2018-02-26T14:34:01.968000Z</time>
      </trkpt>
      <trkpt lat="45.74981689453125" lon="10.254964828491211">
        <ele>648.5060246229465</ele>
        <time>2018-02-26T14:34:02.266000Z</time>
      </trkpt>
      <trkpt lat="45.749924182891846" lon="10.255415439605713">
        <ele>656.1689252466822</ele>
        <time>2018-02-26T14:34:02.799000Z</time>
      </trkpt>
      <trkpt lat="45.75080394744873" lon="10.25672435760498">
        <ele>675.0</ele>
        <time>2018-02-26T14:34:04.832000Z</time>
      </trkpt>
      <trkpt lat="45.75112581253052" lon="10.257432460784912">
        <ele>713.014934329662</ele>
        <time>2018-02-26T14:34:05.777000Z</time>
      </trkpt>
      <trkpt lat="45.751190185546875" lon="10.257797241210938">
        <ele>702.239275676765</ele>
        <time>2018-02-26T14:34:06.198000Z</time>
      </trkpt>
      <trkpt lat="45.751211643218994" lon="10.258762836456299">
        <ele>702.7702465909136</ele>
        <time>2018-02-26T14:34:07.279000Z</time>
      </trkpt>
      <trkpt lat="45.75112581253052" lon="10.259084701538086">
        <ele>701.9721517832821</ele>
        <time>2018-02-26T14:34:07.664000Z</time>
      </trkpt>
      <trkpt lat="45.75088977813721" lon="10.259535312652588">
        <ele>706.2285137701932</ele>
        <time>2018-02-26T14:34:08.294000Z</time>
      </trkpt>
      <trkpt lat="45.750954151153564" lon="10.259706974029541">
        <ele>706.778343582779</ele>
        <time>2018-02-26T14:34:08.512000Z</time>
      </trkpt>
      <trkpt lat="45.75106143951416" lon="10.259685516357422">
        <ele>707.2163525494211</ele>
        <time>2018-02-26T14:34:08.686000Z</time>
      </trkpt>
      <trkpt lat="45.75112581253052" lon="10.259578227996826">
        <ele>707.6155691047258</ele>
        <time>2018-02-26T14:34:08.844000Z</time>
      </trkpt>
      <trkpt lat="45.751211643218994" lon="10.259127616882324">
        <ele>706.2667522345151</ele>
        <time>2018-02-26T14:34:09.367000Z</time>
      </trkpt>
      <trkpt lat="45.75127601623535" lon="10.259041786193848">
        <ele>706.622263078826</ele>
        <time>2018-02-26T14:34:09.508000Z</time>
      </trkpt>
      <trkpt lat="45.751426219940186" lon="10.259063243865967">
        <ele>707.2325999672913</ele>
        <time>2018-02-26T14:34:09.750000Z</time>
      </trkpt>
      <trkpt lat="45.75134038925171" lon="10.259642601013184">
        <ele>715.0789070546508</ele>
        <time>2018-02-26T14:34:10.413000Z</time>
      </trkpt>
      <trkpt lat="45.75181245803833" lon="10.260350704193115">
        <ele>731.6436032885407</ele>
        <time>2018-02-26T14:34:11.509000Z</time>
      </trkpt>
      <trkpt lat="45.75189828872681" lon="10.260543823242188">
        <ele>733.0</ele>
        <time>2018-02-26T14:34:11.765000Z</time>
      </trkpt>
      <trkpt lat="45.751919746398926" lon="10.26120901107788">
        <ele>729.3333333333334</ele>
        <time>2018-02-26T14:34:12.510000Z</time>
      </trkpt>
      <trkpt lat="45.75204849243164" lon="10.26125192642212">
        <ele>729.3333333333334</ele>
        <time>2018-02-26T14:34:12.722000Z</time>
      </trkpt>
      <trkpt lat="45.75213432312012" lon="10.26097297668457">
        <ele>729.3333333333334</ele>
        <time>2018-02-26T14:34:13.063000Z</time>
      </trkpt>
      <trkpt lat="45.752112865448" lon="10.260608196258545">
        <ele>733.0</ele>
        <time>2018-02-26T14:34:13.472000Z</time>
      </trkpt>
      <trkpt lat="45.751941204071045" lon="10.260179042816162">
        <ele>733.0</ele>
        <time>2018-02-26T14:34:14.025000Z</time>
      </trkpt>
      <trkpt lat="45.7520055770874" lon="10.260007381439209">
        <ele>732.8655108387811</ele>
        <time>2018-02-26T14:34:14.243000Z</time>
      </trkpt>
      <trkpt lat="45.752155780792236" lon="10.260093212127686">
        <ele>733.3091583734007</ele>
        <time>2018-02-26T14:34:14.502000Z</time>
      </trkpt>
      <trkpt lat="45.75237035751343" lon="10.260908603668213">
        <ele>731.310779360043</ele>
        <time>2018-02-26T14:34:15.477000Z</time>
      </trkpt>
      <trkpt lat="45.75234889984131" lon="10.261080265045166">
        <ele>731.6446346784056</ele>
        <time>2018-02-26T14:34:15.672000Z</time>
      </trkpt>
      <trkpt lat="45.75189828872681" lon="10.261766910552979">
        <ele>735.4491723007022</ele>
        <time>2018-02-26T14:34:16.726000Z</time>
      </trkpt>
      <trkpt lat="45.751683712005615" lon="10.262560844421387">
        <ele>744.0854807243728</ele>
        <time>2018-02-26T14:34:17.678000Z</time>
      </trkpt>
      <trkpt lat="45.75151205062866" lon="10.262839794158936">
        <ele>727.001347275399</ele>
        <time>2018-02-26T14:34:18.094000Z</time>
      </trkpt>
      <trkpt lat="45.75086832046509" lon="10.26346206665039">
        <ele>742.5926034098733</ele>
        <time>2018-02-26T14:34:19.339000Z</time>
      </trkpt>
      <trkpt lat="45.75050354003906" lon="10.264256000518799">
        <ele>748.9451286235122</ele>
        <time>2018-02-26T14:34:20.402000Z</time>
      </trkpt>
      <trkpt lat="45.75042190030217" lon="10.264349291101098">
        <ele>747.9481874445856</ele>
        <time>2018-02-26T14:34:20.569000Z</time>
      </trkpt>
      <trkpt lat="45.7504219841212" lon="10.264349207282066">
        <ele>747.9472115838086</ele>
        <time>2018-02-26T14:34:20.569000Z</time>
      </trkpt>
      <trkpt lat="45.74990272521973" lon="10.264942646026611">
        <ele>728.6059702579993</ele>
        <time>2018-02-26T14:34:21.634000Z</time>
      </trkpt>
      <trkpt lat="45.74981689453125" lon="10.26522159576416">
        <ele>738.3735201645637</ele>
        <time>2018-02-26T14:34:21.975000Z</time>
      </trkpt>
      <trkpt lat="45.74985980987549" lon="10.265564918518066">
        <ele>742.9194106074691</ele>
        <time>2018-02-26T14:34:22.365000Z</time>
      </trkpt>
      <trkpt lat="45.75026750564575" lon="10.266315937042236">
        <ele>771.6542558041825</ele>
        <time>2018-02-26T14:34:23.429000Z</time>
      </trkpt>
      <trkpt lat="45.75039625167847" lon="10.266766548156738">
        <ele>773.0004490002539</ele>
        <time>2018-02-26T14:34:23.974000Z</time>
      </trkpt>
      <trkpt lat="45.7505464553833" lon="10.267066955566406">
        <ele>776.3498056765328</ele>
        <time>2018-02-26T14:34:24.387000Z</time>
      </trkpt>
      <trkpt lat="45.75082540512085" lon="10.267410278320312">
        <ele>781.1255489655974</ele>
        <time>2018-02-26T14:34:24.976000Z</time>
      </trkpt>
      <trkpt lat="45.75157650746405" lon="10.26796817779541">
        <ele>792.2582969623928</ele>
        <time>2018-02-26T14:34:26.332000Z</time>
      </trkpt>
      <trkpt lat="45.75157642364502" lon="10.26796817779541">
        <ele>792.2588446872859</ele>
        <time>2018-02-26T14:34:26.332000Z</time>
      </trkpt>
      <trkpt lat="45.75228452682495" lon="10.268547534942627">
        <ele>795.5869822732508</ele>
        <time>2018-02-26T14:34:27.639000Z</time>
      </trkpt>
      <trkpt lat="45.752670764923096" lon="10.269341468811035">
        <ele>806.0</ele>
        <time>2018-02-26T14:34:28.722000Z</time>
      </trkpt>
      <trkpt lat="45.75275659561157" lon="10.269577503204346">
        <ele>805.5442619264983</ele>
        <time>2018-02-26T14:34:29.020000Z</time>
      </trkpt>
      <trkpt lat="45.752756679430604" lon="10.269770622253418">
        <ele>805.2135954202889</ele>
        <time>2018-02-26T14:34:29.236000Z</time>
      </trkpt>
      <trkpt lat="45.75273513793945" lon="10.27047872543335">
        <ele>802.0</ele>
        <time>2018-02-26T14:34:30.029000Z</time>
      </trkpt>
      <trkpt lat="45.75299263000488" lon="10.271530151367188">
        <ele>804.8431884996786</ele>
        <time>2018-02-26T14:34:31.275000Z</time>
      </trkpt>
      <trkpt lat="45.752949714660645" lon="10.271894931793213">
        <ele>806.4550933459915</ele>
        <time>2018-02-26T14:34:31.689000Z</time>
      </trkpt>
      <trkpt lat="45.75260647572577" lon="10.272688865661621">
        <ele>812.560983257702</ele>
        <time>2018-02-26T14:34:32.734000Z</time>
      </trkpt>
      <trkpt lat="45.75252056121826" lon="10.273139476776123">
        <ele>813.7400763469426</ele>
        <time>2018-02-26T14:34:33.257000Z</time>
      </trkpt>
      <trkpt lat="45.752564650028944" lon="10.273315915837884">
        <ele>814.2131259158742</ele>
        <time>2018-02-26T14:34:33.467000Z</time>
      </trkpt>
      <trkpt lat="45.752564650028944" lon="10.273315664380789">
        <ele>814.2137606226688</ele>
        <time>2018-02-26T14:34:33.467000Z</time>
      </trkpt>
      <trkpt lat="45.75258493423462" lon="10.273396968841553">
        <ele>814.0983727463722</ele>
        <time>2018-02-26T14:34:33.564000Z</time>
      </trkpt>
      <trkpt lat="45.753014087677" lon="10.273890495300293">
        <ele>816.0888193405084</ele>
        <time>2018-02-26T14:34:34.446000Z</time>
      </trkpt>
      <trkpt lat="45.75314283370972" lon="10.274126529693604">
        <ele>818.7167052973365</ele>
        <time>2018-02-26T14:34:34.781000Z</time>
      </trkpt>
      <trkpt lat="45.75337895192206" lon="10.275328159332275">
        <ele>839.0</ele>
        <time>2018-02-26T14:34:36.177000Z</time>
      </trkpt>
      <trkpt lat="45.753443241119385" lon="10.275757312774658">
        <ele>839.09180295839</ele>
        <time>2018-02-26T14:34:36.668000Z</time>
      </trkpt>
      <trkpt lat="45.75348615646362" lon="10.27721643447876">
        <ele>838.7305824151044</ele>
        <time>2018-02-26T14:34:38.302000Z</time>
      </trkpt>
      <trkpt lat="45.7534218672663" lon="10.27768850326538">
        <ele>839.5242586065233</ele>
        <time>2018-02-26T14:34:38.840000Z</time>
      </trkpt>
      <trkpt lat="45.75327157974243" lon="10.27794599533081">
        <ele>824.9473142555447</ele>
        <time>2018-02-26T14:34:39.216000Z</time>
      </trkpt>
      <trkpt lat="45.75292834080756" lon="10.278332233428955">
        <ele>823.2513953537214</ele>
        <time>2018-02-26T14:34:39.916000Z</time>
      </trkpt>
      <trkpt lat="45.75282105244696" lon="10.27843952178955">
        <ele>829.4096561653669</ele>
        <time>2018-02-26T14:34:40.126000Z</time>
      </trkpt>
      <trkpt lat="45.752713680267334" lon="10.278675556182861">
        <ele>829.5529635280318</ele>
        <time>2018-02-26T14:34:40.441000Z</time>
      </trkpt>
      <trkpt lat="45.752735221758485" lon="10.279490947723389">
        <ele>837.9679724980607</ele>
        <time>2018-02-26T14:34:41.354000Z</time>
      </trkpt>
      <trkpt lat="45.752713680267334" lon="10.2797269821167">
        <ele>838.0890432266254</ele>
        <time>2018-02-26T14:34:41.620000Z</time>
      </trkpt>
      <trkpt lat="45.7525634765625" lon="10.27996301651001">
        <ele>838.251519986918</ele>
        <time>2018-02-26T14:34:41.977000Z</time>
      </trkpt>
      <trkpt lat="45.752198696136475" lon="10.280091762542725">
        <ele>830.7838064062001</ele>
        <time>2018-02-26T14:34:42.579000Z</time>
      </trkpt>
      <trkpt lat="45.751984203234315" lon="10.280306339263916">
        <ele>830.8653693672604</ele>
        <time>2018-02-26T14:34:42.998000Z</time>
      </trkpt>
      <trkpt lat="45.75176954269409" lon="10.280628204345703">
        <ele>830.9622400699803</ele>
        <time>2018-02-26T14:34:43.496000Z</time>
      </trkpt>
      <trkpt lat="45.75176954269409" lon="10.280756950378418">
        <ele>830.9902512940748</ele>
        <time>2018-02-26T14:34:43.640000Z</time>
      </trkpt>
      <trkpt lat="45.75183391571045" lon="10.280842781066895">
        <ele>836.0176667747327</ele>
        <time>2018-02-26T14:34:43.781000Z</time>
      </trkpt>
      <trkpt lat="45.751919746398926" lon="10.280821323394775">
        <ele>831.0448335938901</ele>
        <time>2018-02-26T14:34:43.921000Z</time>
      </trkpt>
      <trkpt lat="45.75230598449707" lon="10.280413627624512">
        <ele>831.1944056827556</ele>
        <time>2018-02-26T14:34:44.690000Z</time>
      </trkpt>
      <trkpt lat="45.75273513793945" lon="10.280241966247559">
        <ele>839.6666666666666</ele>
        <time>2018-02-26T14:34:45.404000Z</time>
      </trkpt>
      <trkpt lat="45.75282105244696" lon="10.280263423919678">
        <ele>839.7738205452666</ele>
        <time>2018-02-26T14:34:45.544000Z</time>
      </trkpt>
      <trkpt lat="45.752906799316406" lon="10.280392169952393">
        <ele>839.926409244092</ele>
        <time>2018-02-26T14:34:45.743000Z</time>
      </trkpt>
      <trkpt lat="45.75288534164429" lon="10.280520915985107">
        <ele>840.0398920510715</ele>
        <time>2018-02-26T14:34:45.891000Z</time>
      </trkpt>
      <trkpt lat="45.75230598449707" lon="10.280778408050537">
        <ele>832.4518578668427</ele>
        <time>2018-02-26T14:34:46.863000Z</time>
      </trkpt>
      <trkpt lat="45.752112865448" lon="10.281035900115967">
        <ele>840.6108645638291</ele>
        <time>2018-02-26T14:34:47.286000Z</time>
      </trkpt>
      <trkpt lat="45.75202703475952" lon="10.281250476837158">
        <ele>842.6777413451813</ele>
        <time>2018-02-26T14:34:47.563000Z</time>
      </trkpt>
      <trkpt lat="45.75202703475952" lon="10.28195858001709">
        <ele>853.5950906716103</ele>
        <time>2018-02-26T14:34:48.355000Z</time>
      </trkpt>
      <trkpt lat="45.752220153808594" lon="10.282773971557617">
        <ele>859.0657488391427</ele>
        <time>2018-02-26T14:34:49.318000Z</time>
      </trkpt>
      <trkpt lat="45.75262784957886" lon="10.283782482147217">
        <ele>874.5466285489028</ele>
        <time>2018-02-26T14:34:50.622000Z</time>
      </trkpt>
      <trkpt lat="45.752664394676685" lon="10.283825062215328">
        <ele>874.9464279707108</ele>
        <time>2018-02-26T14:34:50.698000Z</time>
      </trkpt>
      <trkpt lat="45.752664310857654" lon="10.283824978396297">
        <ele>874.9472955601892</ele>
        <time>2018-02-26T14:34:50.699000Z</time>
      </trkpt>
      <trkpt lat="45.75275659561157" lon="10.28393268585205">
        <ele>875.9575642953881</ele>
        <time>2018-02-26T14:34:50.890000Z</time>
      </trkpt>
      <trkpt lat="45.75337886810303" lon="10.284039974212646">
        <ele>885.6112033532182</ele>
        <time>2018-02-26T14:34:51.895000Z</time>
      </trkpt>
      <trkpt lat="45.75389393605292" lon="10.283975601196289">
        <ele>890.0</ele>
        <time>2018-02-26T14:34:52.724000Z</time>
      </trkpt>
      <trkpt lat="45.75423717498779" lon="10.28395414352417">
        <ele>892.5851930763532</ele>
        <time>2018-02-26T14:34:53.275000Z</time>
      </trkpt>
      <trkpt lat="45.75455904006958" lon="10.284061431884766">
        <ele>891.8656000722622</ele>
        <time>2018-02-26T14:34:53.805000Z</time>
      </trkpt>
      <trkpt lat="45.754666328430176" lon="10.284147262573242">
        <ele>891.5980394017939</ele>
        <time>2018-02-26T14:34:54.002000Z</time>
      </trkpt>
      <trkpt lat="45.754709243774414" lon="10.284297466278076">
        <ele>887.0180992451286</ele>
        <time>2018-02-26T14:34:54.184000Z</time>
      </trkpt>
      <trkpt lat="45.75466641224921" lon="10.28446912765503">
        <ele>886.7411077419287</ele>
        <time>2018-02-26T14:34:54.388000Z</time>
      </trkpt>
      <trkpt lat="45.754666328430176" lon="10.28446912765503">
        <ele>886.7413964834628</ele>
        <time>2018-02-26T14:34:54.388000Z</time>
      </trkpt>
      <trkpt lat="45.75460195541382" lon="10.284597873687744">
        <ele>887.1220978968513</ele>
        <time>2018-02-26T14:34:54.565000Z</time>
      </trkpt>
      <trkpt lat="45.7545804977417" lon="10.284833908081055">
        <ele>887.6942172651146</ele>
        <time>2018-02-26T14:34:54.831000Z</time>
      </trkpt>
      <trkpt lat="45.75462341308594" lon="10.28543472290039">
        <ele>887.8125281582594</ele>
        <time>2018-02-26T14:34:55.507000Z</time>
      </trkpt>
      <trkpt lat="45.75479507446289" lon="10.285542011260986">
        <ele>888.4576520316778</ele>
        <time>2018-02-26T14:34:55.807000Z</time>
      </trkpt>
      <trkpt lat="45.75526714324951" lon="10.285606384277344">
        <ele>898.0737115225282</ele>
        <time>2018-02-26T14:34:56.567000Z</time>
      </trkpt>
      <trkpt lat="45.75539588928223" lon="10.28571367263794">
        <ele>897.0888247001661</ele>
        <time>2018-02-26T14:34:56.806000Z</time>
      </trkpt>
      <trkpt lat="45.755438804626465" lon="10.285842418670654">
        <ele>890.0971189189846</ele>
        <time>2018-02-26T14:34:56.966000Z</time>
      </trkpt>
      <trkpt lat="45.755438804626465" lon="10.286486148834229">
        <ele>887.1268210496382</ele>
        <time>2018-02-26T14:34:57.686000Z</time>
      </trkpt>
      <trkpt lat="45.7555890083313" lon="10.28695821762085">
        <ele>884.3994708138536</ele>
        <time>2018-02-26T14:34:58.266000Z</time>
      </trkpt>
      <trkpt lat="45.755653381347656" lon="10.287559032440186">
        <ele>879.2613711064802</ele>
        <time>2018-02-26T14:34:58.946000Z</time>
      </trkpt>
      <trkpt lat="45.755739295855165" lon="10.28770923614502">
        <ele>879.1455917782187</ele>
        <time>2018-02-26T14:34:59.163000Z</time>
      </trkpt>
      <trkpt lat="45.75573921203613" lon="10.28770923614502">
        <ele>879.1455201661639</ele>
        <time>2018-02-26T14:34:59.163000Z</time>
      </trkpt>
      <trkpt lat="45.756511772051454" lon="10.288503170013428">
        <ele>878.0</ele>
        <time>2018-02-26T14:35:00.687000Z</time>
      </trkpt>
      <trkpt lat="45.75659760273993" lon="10.288760662078857">
        <ele>877.6434214232494</ele>
        <time>2018-02-26T14:35:01.006000Z</time>
      </trkpt>
      <trkpt lat="45.75659760273993" lon="10.288825035095215">
        <ele>877.56298515172</ele>
        <time>2018-02-26T14:35:01.078000Z</time>
      </trkpt>
      <trkpt lat="45.75651168823242" lon="10.289254188537598">
        <ele>875.3384379269328</ele>
        <time>2018-02-26T14:35:01.577000Z</time>
      </trkpt>
      <trkpt lat="45.75634002685547" lon="10.289533138275146">
        <ele>874.8736726627512</ele>
        <time>2018-02-26T14:35:01.993000Z</time>
      </trkpt>
      <trkpt lat="45.75576066970825" lon="10.290026664733887">
        <ele>874.0</ele>
        <time>2018-02-26T14:35:03.073000Z</time>
      </trkpt>
      <trkpt lat="45.755653381347656" lon="10.29019832611084">
        <ele>875.0589045182963</ele>
        <time>2018-02-26T14:35:03.331000Z</time>
      </trkpt>
      <trkpt lat="45.755417346954346" lon="10.29094934463501">
        <ele>886.8435432210899</ele>
        <time>2018-02-26T14:35:04.252000Z</time>
      </trkpt>
      <trkpt lat="45.75527929700911" lon="10.291564492508769">
        <ele>889.8125796604521</ele>
        <time>2018-02-26T14:35:04.975000Z</time>
      </trkpt>
      <trkpt lat="45.75527929700911" lon="10.291564241051674">
        <ele>889.8112240805036</ele>
        <time>2018-02-26T14:35:04.975000Z</time>
      </trkpt>
      <trkpt lat="45.755181312561035" lon="10.292000770568848">
        <ele>893.3391543095044</ele>
        <time>2018-02-26T14:35:05.488000Z</time>
      </trkpt>
      <trkpt lat="45.75511693954468" lon="10.292215347290039">
        <ele>892.079994356156</ele>
        <time>2018-02-26T14:35:05.749000Z</time>
      </trkpt>
      <trkpt lat="45.75503119267523" lon="10.292279720306396">
        <ele>891.3320935222822</ele>
        <time>2018-02-26T14:35:05.904000Z</time>
      </trkpt>
      <trkpt lat="45.7550311088562" lon="10.292279720306396">
        <ele>891.3314459027544</ele>
        <time>2018-02-26T14:35:05.904000Z</time>
      </trkpt>
      <trkpt lat="45.754687786102295" lon="10.292258262634277">
        <ele>874.3429419384332</ele>
        <time>2018-02-26T14:35:06.455000Z</time>
      </trkpt>
      <trkpt lat="45.75451612472534" lon="10.292322635650635">
        <ele>873.1990402311782</ele>
        <time>2018-02-26T14:35:06.739000Z</time>
      </trkpt>
      <trkpt lat="45.753936767578125" lon="10.29270887374878">
        <ele>879.317186613276</ele>
        <time>2018-02-26T14:35:07.763000Z</time>
      </trkpt>
      <trkpt lat="45.75378656387329" lon="10.292751789093018">
        <ele>879.745001835287</ele>
        <time>2018-02-26T14:35:08.009000Z</time>
      </trkpt>
      <trkpt lat="45.753185749053955" lon="10.292665958404541">
        <ele>879.4315556092866</ele>
        <time>2018-02-26T14:35:08.977000Z</time>
      </trkpt>
      <trkpt lat="45.75275659561157" lon="10.293052196502686">
        <ele>881.0921186234069</ele>
        <time>2018-02-26T14:35:09.789000Z</time>
      </trkpt>
      <trkpt lat="45.752220153808594" lon="10.293352603912354">
        <ele>883.7973869941637</ele>
        <time>2018-02-26T14:35:10.712000Z</time>
      </trkpt>
      <trkpt lat="45.7520055770874" lon="10.293567180633545">
        <ele>882.4942777409459</ele>
        <time>2018-02-26T14:35:11.131000Z</time>
      </trkpt>
      <trkpt lat="45.75176954269409" lon="10.294060707092285">
        <ele>880.4150088353123</ele>
        <time>2018-02-26T14:35:11.800000Z</time>
      </trkpt>
      <trkpt lat="45.751683712005615" lon="10.294082164764404">
        <ele>879.9810858639843</ele>
        <time>2018-02-26T14:35:11.940000Z</time>
      </trkpt>
      <trkpt lat="45.751490676775575" lon="10.293889045715332">
        <ele>873.1419596476222</ele>
        <time>2018-02-26T14:35:12.317000Z</time>
      </trkpt>
      <trkpt lat="45.75136184692383" lon="10.293824672698975">
        <ele>872.4624600077947</ele>
        <time>2018-02-26T14:35:12.536000Z</time>
      </trkpt>
      <trkpt lat="45.75086832046509" lon="10.293781757354736">
        <ele>870.0</ele>
        <time>2018-02-26T14:35:13.329000Z</time>
      </trkpt>
      <trkpt lat="45.75033187866211" lon="10.293567180633545">
        <ele>868.0070585704631</ele>
        <time>2018-02-26T14:35:14.222000Z</time>
      </trkpt>
      <trkpt lat="45.75007438659668" lon="10.293610095977783">
        <ele>867.8551956687339</ele>
        <time>2018-02-26T14:35:14.638000Z</time>
      </trkpt>
      <trkpt lat="45.749924182891846" lon="10.293803215026855">
        <ele>868.5007591800364</ele>
        <time>2018-02-26T14:35:14.962000Z</time>
      </trkpt>
      <trkpt lat="45.74985980987549" lon="10.29416799545288">
        <ele>874.7744086393653</ele>
        <time>2018-02-26T14:35:15.383000Z</time>
      </trkpt>
      <trkpt lat="45.74985989369452" lon="10.294618606567383">
        <ele>876.2997187006673</ele>
        <time>2018-02-26T14:35:15.887000Z</time>
      </trkpt>
      <trkpt lat="45.749945640563965" lon="10.295605659484863">
        <ele>880.0</ele>
        <time>2018-02-26T14:35:17Z</time>
      </trkpt>
      <trkpt lat="45.75037479400635" lon="10.296528339385986">
        <ele>895.4288256134338</ele>
        <time>2018-02-26T14:35:18.240000Z</time>
      </trkpt>
      <trkpt lat="45.75078248977661" lon="10.29695749282837">
        <ele>894.1830449851151</ele>
        <time>2018-02-26T14:35:19.051000Z</time>
      </trkpt>
      <trkpt lat="45.751941204071045" lon="10.297515392303467">
        <ele>928.0</ele>
        <time>2018-02-26T14:35:21.011000Z</time>
      </trkpt>
      <trkpt lat="45.75226306915283" lon="10.29792308807373">
        <ele>924.6607772461199</ele>
        <time>2018-02-26T14:35:21.700000Z</time>
      </trkpt>
      <trkpt lat="45.75228452682495" lon="10.298137664794922">
        <ele>923.4850004470085</ele>
        <time>2018-02-26T14:35:21.942000Z</time>
      </trkpt>
      <trkpt lat="45.752220153808594" lon="10.298223495483398">
        <ele>922.8015175356933</ele>
        <time>2018-02-26T14:35:22.083000Z</time>
      </trkpt>
      <trkpt lat="45.75179100036621" lon="10.298223495483398">
        <ele>919.4654658887545</ele>
        <time>2018-02-26T14:35:22.771000Z</time>
      </trkpt>
      <trkpt lat="45.75080394744873" lon="10.299017429351807">
        <ele>889.6887564428275</ele>
        <time>2018-02-26T14:35:24.586000Z</time>
      </trkpt>
      <trkpt lat="45.75039625167847" lon="10.29916763305664">
        <ele>902.8452686021295</ele>
        <time>2018-02-26T14:35:25.261000Z</time>
      </trkpt>
      <trkpt lat="45.749709606170654" lon="10.299317836761475">
        <ele>898.9316771633172</ele>
        <time>2018-02-26T14:35:26.375000Z</time>
      </trkpt>
      <trkpt lat="45.74949502944946" lon="10.299510955810547">
        <ele>899.0847961420883</ele>
        <time>2018-02-26T14:35:26.781000Z</time>
      </trkpt>
      <trkpt lat="45.749430656433105" lon="10.299746990203857">
        <ele>901.0235536136161</ele>
        <time>2018-02-26T14:35:27.064000Z</time>
      </trkpt>
      <trkpt lat="45.74932336807251" lon="10.300326347351074">
        <ele>917.1604429013778</ele>
        <time>2018-02-26T14:35:27.735000Z</time>
      </trkpt>
      <trkpt lat="45.74910879135132" lon="10.300712585449219">
        <ele>911.1756389825541</ele>
        <time>2018-02-26T14:35:28.287000Z</time>
      </trkpt>
      <trkpt lat="45.74887275695801" lon="10.301249027252197">
        <ele>921.9051851071213</ele>
        <time>2018-02-26T14:35:28.996000Z</time>
      </trkpt>
      <trkpt lat="45.74882984161377" lon="10.301485061645508">
        <ele>924.9399472295112</ele>
        <time>2018-02-26T14:35:29.269000Z</time>
      </trkpt>
      <trkpt lat="45.74885129928589" lon="10.301849842071533">
        <ele>933.8279312024015</ele>
        <time>2018-02-26T14:35:29.679000Z</time>
      </trkpt>
      <trkpt lat="45.748958587646484" lon="10.302815437316895">
        <ele>944.993078472959</ele>
        <time>2018-02-26T14:35:30.773000Z</time>
      </trkpt>
      <trkpt lat="45.74923753738403" lon="10.30343770980835">
        <ele>970.8069790038124</ele>
        <time>2018-02-26T14:35:31.600000Z</time>
      </trkpt>
      <trkpt lat="45.749666690826416" lon="10.304038524627686">
        <ele>971.5426051918711</ele>
        <time>2018-02-26T14:35:32.562000Z</time>
      </trkpt>
      <trkpt lat="45.749688148498535" lon="10.304253101348877">
        <ele>970.0614056927792</ele>
        <time>2018-02-26T14:35:32.804000Z</time>
      </trkpt>
      <trkpt lat="45.749452114105225" lon="10.30444622039795">
        <ele>970.3946654518359</ele>
        <time>2018-02-26T14:35:33.240000Z</time>
      </trkpt>
      <trkpt lat="45.7490873336792" lon="10.304467678070068">
        <ele>956.8514718348242</ele>
        <time>2018-02-26T14:35:33.825000Z</time>
      </trkpt>
      <trkpt lat="45.747671127319336" lon="10.305089950561523">
        <ele>963.0</ele>
        <time>2018-02-26T14:35:36.200000Z</time>
      </trkpt>
      <trkpt lat="45.74726343154907" lon="10.306527614593506">
        <ele>949.0</ele>
        <time>2018-02-26T14:35:37.936000Z</time>
      </trkpt>
      <trkpt lat="45.747199058532715" lon="10.30693531036377">
        <ele>956.3823269198223</ele>
        <time>2018-02-26T14:35:38.404000Z</time>
      </trkpt>
      <trkpt lat="45.747199058532715" lon="10.307600498199463">
        <ele>961.5676806361772</ele>
        <time>2018-02-26T14:35:39.148000Z</time>
      </trkpt>
      <trkpt lat="45.74683427810669" lon="10.308544635772705">
        <ele>968.8295461347367</ele>
        <time>2018-02-26T14:35:40.355000Z</time>
      </trkpt>
      <trkpt lat="45.746684074401855" lon="10.309252738952637">
        <ele>975.0</ele>
        <time>2018-02-26T14:35:41.183000Z</time>
      </trkpt>
      <trkpt lat="45.746199768036604" lon="10.309696644544601">
        <ele>947.0</ele>
        <time>2018-02-26T14:35:42.105000Z</time>
      </trkpt>
    </trkseg>
  </trk>
</gpx>